Time;durP1;ratioP1;P1;durP2;ratioP2;P2;SDS_P1;SDS_P2;PMS_P1;PMS_P2;Temp;Humidity;BMP_temperature;BMP_pressure;BME280_temperature;BME280_humidity;BME280_pressure;Samples;Min_cycle;Max_cycle;Signal;HPM_P1;HPM_P2
2022/06/18 00:00:26;;;;;;;;;;;22.30;39.90;;;;;;4835321;29;19931;-91
2022/06/18 00:06:52;;;;;;;;;;;22.20;40.30;;;;;;4791726;30;19924;-93
2022/06/18 00:15:17;;;;;;;;;;;22.20;40.80;;;;;;4953221;28;19920;-91
2022/06/18 00:17:51;;;;;;;;;;;22.10;41.10;;;;;;4963477;28;19953;-90
2022/06/18 00:20:18;;;;;;;;;;;22.10;41.10;;;;;;4963787;28;19953;-92
2022/06/18 00:22:45;;;;;;;;;;;22.10;41.30;;;;;;4959417;29;20370;-91
2022/06/18 00:25:23;;;;;;;;;;;22.00;41.20;;;;;;4959380;29;19911;-91
2022/06/18 00:27:50;;;;;;;;;;;22.10;41.20;;;;;;4960684;28;20346;-91
2022/06/18 00:30:19;;;;;;;;;;;22.00;41.20;;;;;;4962554;28;19910;-92
2022/06/18 00:32:47;;;;;;;;;;;22.00;41.30;;;;;;4962568;28;20366;-92
2022/06/18 00:35:15;;;;;;;;;;;22.00;41.50;;;;;;4961646;28;19921;-91
2022/06/18 00:37:41;;;;;;;;;;;22.00;41.60;;;;;;4956970;28;19965;-91
2022/06/18 00:40:35;;;;;;;;;;;22.00;41.70;;;;;;4960436;29;20375;-92
2022/06/18 00:43:06;;;;;;;;;;;22.10;41.50;;;;;;4963241;28;19965;-92
2022/06/18 00:45:31;;;;;;;;;;;22.10;41.50;;;;;;4978822;28;19914;-91
2022/06/18 00:48:07;;;;;;;;;;;22.10;41.50;;;;;;4980820;28;19923;-91
2022/06/18 00:50:38;;;;;;;;;;;22.10;41.70;;;;;;4959865;28;19929;-92
2022/06/18 00:53:21;;;;;;;;;;;22.10;41.60;;;;;;4962324;28;20421;-92
2022/06/18 00:56:09;;;;;;;;;;;22.10;41.70;;;;;;4962146;28;20405;-92
2022/06/18 00:58:57;;;;;;;;;;;22.00;42.00;;;;;;4968791;28;20008;-92
2022/06/18 01:01:27;;;;;;;;;;;22.00;42.30;;;;;;4956258;29;19926;-91
2022/06/18 01:03:55;;;;;;;;;;;22.00;42.40;;;;;;4959297;28;20347;-92
2022/06/18 01:06:28;;;;;;;;;;;22.00;42.40;;;;;;4944448;29;19921;-91
2022/06/18 01:09:02;;;;;;;;;;;22.00;42.50;;;;;;4944629;29;19933;-91
2022/06/18 01:11:30;;;;;;;;;;;22.00;42.50;;;;;;4943458;29;19914;-91
2022/06/18 01:13:57;;;;;;;;;;;22.00;42.50;;;;;;4945353;28;20434;-91
2022/06/18 01:16:23;;;;;;;;;;;22.00;42.30;;;;;;4963798;28;19922;-91
2022/06/18 01:18:50;;;;;;;;;;;22.00;42.30;;;;;;4962928;28;19926;-91
2022/06/18 01:21:18;;;;;;;;;;;22.00;42.20;;;;;;4963059;28;19929;-91
2022/06/18 01:24:02;;;;;;;;;;;22.10;42.30;;;;;;4980415;28;19922;-91
2022/06/18 01:26:28;;;;;;;;;;;22.10;42.30;;;;;;4954342;28;19914;-91
2022/06/18 01:28:58;;;;;;;;;;;22.10;42.30;;;;;;4969420;28;20381;-91
2022/06/18 01:31:24;;;;;;;;;;;22.20;42.30;;;;;;4980515;28;19953;-90
2022/06/18 01:33:49;;;;;;;;;;;22.30;42.20;;;;;;4955520;29;19922;-90
2022/06/18 01:36:15;;;;;;;;;;;22.30;42.20;;;;;;4972099;28;19918;-91
2022/06/18 01:38:44;;;;;;;;;;;22.20;42.10;;;;;;4961299;28;19918;-91
2022/06/18 01:43:55;;;;;;;;;;;22.30;41.90;;;;;;4974169;28;20408;-91
2022/06/18 01:46:20;;;;;;;;;;;22.30;41.90;;;;;;4980349;28;19965;-91
2022/06/18 01:48:47;;;;;;;;;;;22.30;42.10;;;;;;4982040;28;19913;-91
2022/06/18 01:51:14;;;;;;;;;;;22.30;42.00;;;;;;4971165;28;19918;-91
2022/06/18 01:53:46;;;;;;;;;;;22.30;41.90;;;;;;4962873;28;19920;-92
2022/06/18 01:56:17;;;;;;;;;;;22.30;42.10;;;;;;4959791;28;20263;-91
2022/06/18 01:58:58;;;;;;;;;;;22.30;42.20;;;;;;4955015;28;20423;-91
2022/06/18 02:01:24;;;;;;;;;;;22.30;42.10;;;;;;4979142;28;19928;-91
2022/06/18 02:03:51;;;;;;;;;;;22.30;42.10;;;;;;4947986;28;19922;-91
2022/06/18 02:06:16;;;;;;;;;;;22.30;42.10;;;;;;4957922;29;19915;-91
2022/06/18 02:08:45;;;;;;;;;;;22.20;42.30;;;;;;4951997;29;20058;-91
2022/06/18 02:11:11;;;;;;;;;;;22.20;42.20;;;;;;4947219;28;20024;-91
2022/06/18 02:13:39;;;;;;;;;;;22.20;42.20;;;;;;4950385;29;19918;-92
2022/06/18 02:16:07;;;;;;;;;;;22.20;42.50;;;;;;4943907;29;19952;-91
2022/06/18 02:18:34;;;;;;;;;;;22.20;42.40;;;;;;4965729;28;19918;-91
2022/06/18 02:21:00;;;;;;;;;;;22.20;42.40;;;;;;4961433;28;20029;-91
2022/06/18 02:23:26;;;;;;;;;;;22.10;42.30;;;;;;4967302;28;19968;-92
2022/06/18 02:25:52;;;;;;;;;;;22.10;42.30;;;;;;4970382;28;20426;-91
2022/06/18 02:28:18;;;;;;;;;;;22.10;42.40;;;;;;4962914;29;19922;-90
2022/06/18 02:30:47;;;;;;;;;;;22.10;42.30;;;;;;4946795;29;19949;-90
2022/06/18 02:33:19;;;;;;;;;;;22.00;42.40;;;;;;4949191;28;19918;-91
2022/06/18 02:35:45;;;;;;;;;;;22.00;42.40;;;;;;4965207;28;19914;-91
2022/06/18 02:38:14;;;;;;;;;;;22.00;42.40;;;;;;4969894;28;19918;-91
2022/06/18 02:40:39;;;;;;;;;;;22.00;42.40;;;;;;4957162;28;20025;-91
2022/06/18 02:43:05;;;;;;;;;;;22.00;42.40;;;;;;4964874;28;20371;-91
2022/06/18 02:45:31;;;;;;;;;;;22.00;42.40;;;;;;4982081;28;20374;-91
2022/06/18 02:47:58;;;;;;;;;;;22.00;42.50;;;;;;4964880;28;19922;-90
2022/06/18 02:50:25;;;;;;;;;;;22.00;42.40;;;;;;4957351;28;19966;-90
2022/06/18 02:52:53;;;;;;;;;;;22.00;42.60;;;;;;4960403;29;19934;-91
2022/06/18 02:55:27;;;;;;;;;;;22.00;42.60;;;;;;4945642;29;20006;-91
2022/06/18 02:57:55;;;;;;;;;;;22.00;42.80;;;;;;4952849;28;19922;-91
2022/06/18 03:00:21;;;;;;;;;;;22.00;43.00;;;;;;4949041;29;19922;-93
2022/06/18 03:02:49;;;;;;;;;;;22.00;43.20;;;;;;4962048;29;19915;-91
2022/06/18 03:05:20;;;;;;;;;;;22.00;43.10;;;;;;4965035;28;20366;-91
2022/06/18 03:07:46;;;;;;;;;;;22.00;43.20;;;;;;4961222;29;20371;-91
2022/06/18 03:12:56;;;;;;;;;;;22.00;43.10;;;;;;4966296;28;19924;-91
2022/06/18 03:15:23;;;;;;;;;;;22.00;43.40;;;;;;4964813;28;20438;-91
2022/06/18 03:17:52;;;;;;;;;;;22.00;43.30;;;;;;4956199;28;20008;-91
2022/06/18 03:20:18;;;;;;;;;;;22.10;43.20;;;;;;4976284;28;19950;-91
2022/06/18 03:22:44;;;;;;;;;;;22.20;43.10;;;;;;4961647;29;19933;-91
2022/06/18 03:25:10;;;;;;;;;;;22.20;43.10;;;;;;4973747;28;19910;-91
2022/06/18 03:27:38;;;;;;;;;;;22.30;43.20;;;;;;4926781;29;19941;-90
2022/06/18 03:30:04;;;;;;;;;;;22.40;43.10;;;;;;4945248;29;19915;-91
2022/06/18 03:32:30;;;;;;;;;;;22.60;43.00;;;;;;4961160;29;19930;-91
2022/06/18 03:34:57;;;;;;;;;;;22.70;42.90;;;;;;4927717;29;19914;-91
2022/06/18 03:37:23;;;;;;;;;;;22.80;42.70;;;;;;4977455;28;20482;-92
2022/06/18 03:39:48;;;;;;;;;;;22.90;42.70;;;;;;4963311;28;19898;-91
2022/06/18 03:42:14;;;;;;;;;;;23.10;42.70;;;;;;4963446;28;19937;-91
2022/06/18 03:44:40;;;;;;;;;;;23.20;42.60;;;;;;4964752;28;19914;-91
2022/06/18 03:47:08;;;;;;;;;;;23.30;42.60;;;;;;4956875;29;20005;-91
2022/06/18 03:49:34;;;;;;;;;;;23.50;42.50;;;;;;4970643;28;19922;-91
2022/06/18 03:52:00;;;;;;;;;;;23.60;42.50;;;;;;4993638;28;19920;-92
2022/06/18 03:54:26;;;;;;;;;;;23.80;42.40;;;;;;4983498;28;19965;-92
2022/06/18 03:56:52;;;;;;;;;;;24.00;42.40;;;;;;4982730;28;20289;-91
2022/06/18 03:59:17;;;;;;;;;;;24.20;42.40;;;;;;4983229;28;19921;-92
2022/06/18 04:01:43;;;;;;;;;;;24.30;42.40;;;;;;4987714;28;19918;-92
2022/06/18 04:04:10;;;;;;;;;;;24.60;42.30;;;;;;4981204;28;19918;-92
2022/06/18 04:06:38;;;;;;;;;;;24.90;42.20;;;;;;4957937;29;20359;-91
2022/06/18 04:09:04;;;;;;;;;;;25.20;41.70;;;;;;4961376;29;19945;-92
2022/06/18 04:11:30;;;;;;;;;;;25.50;41.50;;;;;;4977683;28;20354;-92
2022/06/18 04:13:56;;;;;;;;;;;25.80;41.10;;;;;;4965666;28;19970;-92
2022/06/18 04:16:23;;;;;;;;;;;26.20;40.70;;;;;;4969900;28;19917;-92
2022/06/18 04:18:48;;;;;;;;;;;26.50;40.10;;;;;;4981631;28;19917;-92
2022/06/18 04:21:16;;;;;;;;;;;26.80;39.80;;;;;;4950258;28;19930;-93
2022/06/18 04:23:42;;;;;;;;;;;27.20;39.20;;;;;;4963553;28;19919;-92
2022/06/18 04:26:09;;;;;;;;;;;27.50;38.80;;;;;;4962144;28;20347;-92
2022/06/18 04:28:34;;;;;;;;;;;27.90;38.40;;;;;;4947253;29;19930;-92
2022/06/18 04:31:02;;;;;;;;;;;28.30;37.80;;;;;;4963687;28;19914;-92
2022/06/18 04:33:28;;;;;;;;;;;28.60;37.30;;;;;;4981505;28;19964;-93
2022/06/18 04:35:54;;;;;;;;;;;28.90;36.70;;;;;;4957214;28;19918;-93
2022/06/18 04:38:20;;;;;;;;;;;29.30;36.20;;;;;;4944489;29;19929;-93
2022/06/18 04:40:46;;;;;;;;;;;29.60;35.50;;;;;;4944408;29;19918;-92
2022/06/18 04:43:11;;;;;;;;;;;29.90;35.10;;;;;;4960991;29;19922;-93
2022/06/18 04:45:39;;;;;;;;;;;30.30;34.70;;;;;;4953757;28;20275;-93
2022/06/18 04:48:05;;;;;;;;;;;30.60;34.30;;;;;;4966473;28;19925;-92
2022/06/18 04:50:35;;;;;;;;;;;31.00;33.90;;;;;;4955558;29;19914;-91
2022/06/18 04:53:01;;;;;;;;;;;31.30;33.60;;;;;;4948235;28;19969;-92
2022/06/18 04:55:26;;;;;;;;;;;31.70;33.10;;;;;;4959647;29;19969;-93
2022/06/18 04:57:52;;;;;;;;;;;32.00;32.60;;;;;;4987348;28;20503;-92
2022/06/18 05:00:18;;;;;;;;;;;32.40;32.10;;;;;;4961879;28;19926;-93
2022/06/18 05:02:43;;;;;;;;;;;32.70;31.60;;;;;;4949718;28;20038;-93
2022/06/18 05:05:15;;;;;;;;;;;33.10;31.30;;;;;;4944981;29;20336;-91
2022/06/18 05:07:40;;;;;;;;;;;33.40;30.90;;;;;;4988230;28;19918;-93
2022/06/18 05:10:08;;;;;;;;;;;33.80;30.70;;;;;;4963704;28;19915;-91
2022/06/18 05:12:35;;;;;;;;;;;34.20;30.20;;;;;;4974166;28;19981;-91
2022/06/18 05:15:00;;;;;;;;;;;34.50;29.80;;;;;;4954977;29;20617;-91
2022/06/18 05:17:27;;;;;;;;;;;34.80;29.50;;;;;;4942306;29;20014;-91
2022/06/18 05:19:53;;;;;;;;;;;35.20;29.20;;;;;;4959919;29;19926;-92
2022/06/18 05:22:18;;;;;;;;;;;35.50;28.60;;;;;;4962264;29;19981;-92
2022/06/18 05:24:44;;;;;;;;;;;35.80;28.10;;;;;;4945248;29;19923;-91
2022/06/18 05:27:18;;;;;;;;;;;36.00;27.80;;;;;;4960616;29;19924;-91
2022/06/18 05:29:43;;;;;;;;;;;36.40;27.10;;;;;;4960580;29;20032;-92
2022/06/18 05:32:11;;;;;;;;;;;36.60;26.50;;;;;;4981896;28;19918;-91
2022/06/18 05:34:36;;;;;;;;;;;36.80;26.40;;;;;;4963609;28;19914;-91
2022/06/18 05:40:06;;;;;;;;;;;37.30;25.50;;;;;;4967464;28;19933;-92
2022/06/18 05:42:33;;;;;;;;;;;37.60;25.30;;;;;;4942820;29;19919;-92
2022/06/18 05:44:58;;;;;;;;;;;37.80;25.10;;;;;;4943058;29;19921;-91
2022/06/18 05:47:28;;;;;;;;;;;38.10;24.90;;;;;;4960480;29;20021;-91
2022/06/18 05:49:56;;;;;;;;;;;38.30;24.70;;;;;;4944050;29;20089;-92
2022/06/18 05:52:22;;;;;;;;;;;38.50;24.30;;;;;;4965413;28;19918;-92
2022/06/18 05:54:47;;;;;;;;;;;38.70;24.20;;;;;;4948660;29;20053;-91
2022/06/18 05:57:16;;;;;;;;;;;38.90;24.10;;;;;;4943682;28;19914;-92
2022/06/18 05:59:43;;;;;;;;;;;39.20;23.70;;;;;;4942697;29;20013;-92
2022/06/18 06:02:13;;;;;;;;;;;39.40;23.60;;;;;;4942122;29;19926;-92
2022/06/18 06:04:39;;;;;;;;;;;39.70;23.20;;;;;;4943128;29;19910;-92
2022/06/18 06:07:05;;;;;;;;;;;39.90;23.20;;;;;;4942682;29;20357;-92
2022/06/18 06:12:15;;;;;;;;;;;40.50;22.80;;;;;;4963799;29;19969;-92
2022/06/18 06:14:41;;;;;;;;;;;40.80;22.40;;;;;;4957963;29;20351;-93
2022/06/18 06:17:15;;;;;;;;;;;41.00;22.00;;;;;;4961113;28;20378;-93
2022/06/18 06:19:41;;;;;;;;;;;41.30;21.70;;;;;;4962005;28;19981;-93
2022/06/18 06:22:10;;;;;;;;;;;41.40;21.50;;;;;;4975014;28;19918;-93
2022/06/18 06:24:35;;;;;;;;;;;41.70;21.20;;;;;;4982802;28;19972;-92
2022/06/18 06:27:01;;;;;;;;;;;41.80;20.80;;;;;;4981471;28;19910;-93
2022/06/18 06:29:27;;;;;;;;;;;42.10;20.90;;;;;;4983102;28;19993;-94
2022/06/18 06:31:52;;;;;;;;;;;42.30;20.60;;;;;;4981426;28;20004;-93
2022/06/18 06:34:20;;;;;;;;;;;42.50;20.50;;;;;;4982476;28;20278;-94
2022/06/18 06:36:46;;;;;;;;;;;42.70;20.20;;;;;;4982803;28;19970;-94
2022/06/18 06:39:11;;;;;;;;;;;42.80;20.00;;;;;;4982304;28;19985;-93
2022/06/18 06:41:46;;;;;;;;;;;43.00;19.90;;;;;;4980661;28;20362;-92
2022/06/18 06:47:17;;;;;;;;;;;43.30;19.80;;;;;;4999562;28;19982;-93
2022/06/18 06:49:43;;;;;;;;;;;43.60;19.90;;;;;;4983391;28;19941;-93
2022/06/18 06:52:09;;;;;;;;;;;43.80;19.80;;;;;;4965999;28;19914;-94
2022/06/18 06:54:35;;;;;;;;;;;44.10;19.70;;;;;;4963143;28;19993;-94
2022/06/18 06:59:45;;;;;;;;;;;44.60;19.50;;;;;;4981158;28;19939;-93
2022/06/18 07:02:30;;;;;;;;;;;44.90;19.60;;;;;;4964565;28;19918;-94
2022/06/18 07:04:56;;;;;;;;;;;45.20;19.40;;;;;;4964179;28;19918;-93
2022/06/18 07:07:22;;;;;;;;;;;45.60;19.00;;;;;;4962714;28;19938;-94
2022/06/18 07:09:47;;;;;;;;;;;45.80;18.80;;;;;;4981969;28;19921;-94
2022/06/18 09:07:37;;;;;;;;;;;52.70;14.70;;;;;;4731904;23;19930;-89
2022/06/18 09:23:09;;;;;;;;;;;53.30;14.40;;;;;;5840347;23;19926;-89
2022/06/18 09:28:21;;;;;;;;;;;53.40;14.50;;;;;;5599262;23;19939;-89
2022/06/18 09:30:52;;;;;;;;;;;53.70;14.50;;;;;;5349340;23;19937;-89
2022/06/18 09:36:01;;;;;;;;;;;54.00;14.40;;;;;;5050153;23;19929;-89
2022/06/18 09:38:38;;;;;;;;;;;54.20;14.30;;;;;;4963243;28;19922;-89
2022/06/18 09:41:08;;;;;;;;;;;54.20;14.30;;;;;;4800890;23;19930;-89
2022/06/18 09:43:48;;;;;;;;;;;54.30;14.30;;;;;;4953130;29;19950;-89
2022/06/18 09:46:23;;;;;;;;;;;54.60;14.40;;;;;;4943651;28;20293;-90
2022/06/18 09:48:53;;;;;;;;;;;54.70;14.10;;;;;;4984100;28;19910;-89
2022/06/18 09:53:48;;;;;;;;;;;54.90;14.00;;;;;;5090192;23;20018;-88
2022/06/18 09:58:55;;;;;;;;;;;55.00;13.70;;;;;;5120213;23;19931;-90
2022/06/18 10:01:45;;;;;;;;;;;55.10;13.50;;;;;;5062451;23;19938;-90
2022/06/18 10:12:24;;;;;;;;;;;55.20;13.40;;;;;;4434239;23;19934;-90
2022/06/18 10:17:46;;;;;;;;;;;55.40;13.30;;;;;;4936767;23;20274;-89
2022/06/18 10:20:21;;;;;;;;;;;55.50;13.30;;;;;;4966003;28;19981;-89
2022/06/18 10:23:01;;;;;;;;;;;55.50;13.30;;;;;;4956657;28;20013;-90
2022/06/18 10:28:23;;;;;;;;;;;55.50;13.20;;;;;;5333353;23;19914;-90
2022/06/18 10:33:38;;;;;;;;;;;55.50;13.20;;;;;;5095144;23;19954;-90
2022/06/18 10:36:15;;;;;;;;;;;55.60;13.20;;;;;;4936653;29;19918;-90
2022/06/18 10:38:54;;;;;;;;;;;55.60;13.20;;;;;;5141512;23;19934;-89
2022/06/18 10:44:14;;;;;;;;;;;55.40;13.20;;;;;;4830597;23;20210;-89
2022/06/18 10:47:05;;;;;;;;;;;55.50;13.30;;;;;;5396907;23;20173;-93
2022/06/18 10:49:31;;;;;;;;;;;55.60;13.10;;;;;;4943159;29;19954;-94
2022/06/18 10:52:25;;;;;;;;;;;55.70;13.00;;;;;;4960418;29;19986;-92
2022/06/18 10:54:51;;;;;;;;;;;55.80;12.80;;;;;;4947764;29;19914;-95
2022/06/18 10:57:33;;;;;;;;;;;55.60;12.80;;;;;;4959223;29;19957;-94
2022/06/18 11:00:17;;;;;;;;;;;55.60;12.90;;;;;;4942029;29;19922;-92
2022/06/18 11:02:43;;;;;;;;;;;55.70;12.90;;;;;;4943686;29;20013;-94
2022/06/18 11:05:22;;;;;;;;;;;55.60;12.80;;;;;;4944050;29;20371;-94
2022/06/18 11:07:52;;;;;;;;;;;55.50;12.80;;;;;;4957094;28;19922;-95
2022/06/18 11:10:24;;;;;;;;;;;55.30;12.70;;;;;;4978231;28;19922;-91
2022/06/18 11:16:08;;;;;;;;;;;;;;;;;;;;;
2022/06/18 11:18:43;;;;;;;;;;;55.00;12.90;;;;;;4939256;29;20039;-90
2022/06/18 11:21:32;;;;;;;;;;;55.00;12.90;;;;;;4936089;29;19926;-90
2022/06/18 11:26:25;;;;;;;;;;;55.00;12.90;;;;;;4944429;29;20001;-89
2022/06/18 11:28:52;;;;;;;;;;;55.00;13.00;;;;;;4959283;28;19914;-89
2022/06/18 11:31:23;;;;;;;;;;;54.90;12.90;;;;;;4962433;28;19925;-89
2022/06/18 11:34:16;;;;;;;;;;;54.70;12.90;;;;;;4940315;29;20359;-90
2022/06/18 11:36:46;;;;;;;;;;;54.70;13.10;;;;;;4943486;28;19925;-88
2022/06/18 11:39:32;;;;;;;;;;;54.80;13.20;;;;;;4959804;28;20005;-89
2022/06/18 11:42:18;;;;;;;;;;;54.80;13.00;;;;;;4953247;29;19974;-89
2022/06/18 11:44:48;;;;;;;;;;;54.80;12.60;;;;;;4939942;29;19954;-89
2022/06/18 11:47:27;;;;;;;;;;;54.50;12.30;;;;;;4958187;29;19914;-88
2022/06/18 11:49:59;;;;;;;;;;;54.40;12.70;;;;;;4958280;29;20009;-88
2022/06/18 11:52:33;;;;;;;;;;;54.30;12.80;;;;;;4941297;29;19921;-89
2022/06/18 11:55:01;;;;;;;;;;;54.30;13.00;;;;;;4958564;29;19929;-90
2022/06/18 11:57:26;;;;;;;;;;;54.30;13.00;;;;;;4947892;28;19914;-90
2022/06/18 12:00:03;;;;;;;;;;;54.40;13.00;;;;;;4961533;28;19918;-89
2022/06/18 12:02:28;;;;;;;;;;;54.50;12.70;;;;;;4976916;28;19922;-89
2022/06/18 12:05:01;;;;;;;;;;;54.40;12.80;;;;;;4977292;28;20377;-91
2022/06/18 12:07:46;;;;;;;;;;;54.40;12.90;;;;;;4961206;28;19922;-91
2022/06/18 12:10:13;;;;;;;;;;;54.40;12.90;;;;;;4961173;28;19934;-89
2022/06/18 12:13:03;;;;;;;;;;;54.40;12.90;;;;;;4976816;28;19926;-93
2022/06/18 12:15:28;;;;;;;;;;;54.60;13.00;;;;;;4960297;28;19961;-89
2022/06/18 12:18:21;;;;;;;;;;;54.70;13.00;;;;;;4976032;28;19918;-90
2022/06/18 12:20:55;;;;;;;;;;;54.70;13.00;;;;;;4948729;28;20583;-91
2022/06/18 12:23:31;;;;;;;;;;;54.70;13.10;;;;;;4973168;28;20359;-89
2022/06/18 12:26:02;;;;;;;;;;;54.80;13.00;;;;;;4956340;29;19911;-90
2022/06/18 12:28:47;;;;;;;;;;;54.70;12.80;;;;;;4958708;28;19925;-92
2022/06/18 12:31:18;;;;;;;;;;;54.60;12.80;;;;;;4959527;28;20224;-93
2022/06/18 12:33:56;;;;;;;;;;;54.50;12.90;;;;;;4958497;28;19915;-94
2022/06/18 12:36:33;;;;;;;;;;;54.30;12.90;;;;;;4959571;28;19922;-93
2022/06/18 12:39:14;;;;;;;;;;;54.20;12.80;;;;;;4921848;29;19966;-91
2022/06/18 12:41:50;;;;;;;;;;;54.20;12.90;;;;;;4940163;29;19927;-91
2022/06/18 12:44:34;;;;;;;;;;;54.20;13.00;;;;;;4971222;28;20014;-90
2022/06/18 12:47:00;;;;;;;;;;;54.20;12.90;;;;;;4959160;28;20382;-91
2022/06/18 12:49:41;;;;;;;;;;;53.90;12.80;;;;;;4958882;28;19917;-92
2022/06/18 12:52:11;;;;;;;;;;;53.70;13.00;;;;;;4978388;28;19914;-91
2022/06/18 12:54:43;;;;;;;;;;;53.50;13.20;;;;;;4962096;28;19918;-91
2022/06/18 12:57:22;;;;;;;;;;;53.50;13.40;;;;;;4970602;28;19919;-91
2022/06/18 13:00:19;;;;;;;;;;;53.40;13.50;;;;;;4969365;28;19925;-92
2022/06/18 13:02:56;;;;;;;;;;;53.30;13.20;;;;;;4979989;28;19918;-93
2022/06/18 13:05:34;;;;;;;;;;;53.00;13.40;;;;;;4962570;28;20414;-92
2022/06/18 13:08:18;;;;;;;;;;;52.80;13.50;;;;;;4959764;28;19914;-90
2022/06/18 13:10:44;;;;;;;;;;;52.70;13.50;;;;;;4961203;28;19910;-93
2022/06/18 13:13:38;;;;;;;;;;;52.60;13.80;;;;;;4977142;28;19914;-91
2022/06/18 13:16:22;;;;;;;;;;;52.60;13.90;;;;;;4931613;28;19918;-91
2022/06/18 13:19:17;;;;;;;;;;;52.70;13.90;;;;;;4959728;28;19924;-91
2022/06/18 13:21:44;;;;;;;;;;;52.50;13.80;;;;;;4943938;28;19986;-93
2022/06/18 13:29:55;;;;;;;;;;;52.00;14.00;;;;;;4936940;29;19926;-92
2022/06/18 13:32:43;;;;;;;;;;;51.80;14.10;;;;;;4956129;29;20248;-93
2022/06/18 13:35:16;;;;;;;;;;;51.70;14.10;;;;;;4942001;29;20367;-92
2022/06/18 13:37:47;;;;;;;;;;;51.50;14.20;;;;;;4941400;29;19997;-92
2022/06/18 13:40:31;;;;;;;;;;;51.50;14.20;;;;;;4958458;29;19952;-93
2022/06/18 13:43:03;;;;;;;;;;;51.50;14.20;;;;;;4957836;29;19921;-92
2022/06/18 13:45:39;;;;;;;;;;;51.50;14.10;;;;;;4957783;29;20021;-92
2022/06/18 13:48:23;;;;;;;;;;;51.40;14.20;;;;;;4957540;29;19919;-90
2022/06/18 13:50:50;;;;;;;;;;;51.30;14.20;;;;;;4939959;29;19914;-94
2022/06/18 13:53:42;;;;;;;;;;;50.90;14.30;;;;;;4925314;29;19961;-92
2022/06/18 13:56:28;;;;;;;;;;;50.50;14.60;;;;;;4936277;29;19921;-92
2022/06/18 13:58:55;;;;;;;;;;;50.30;14.80;;;;;;4973627;28;19973;-92
2022/06/18 14:01:22;;;;;;;;;;;50.20;14.90;;;;;;4959701;28;20370;-94
2022/06/18 14:03:53;;;;;;;;;;;50.30;15.00;;;;;;4958682;28;19926;-91
2022/06/18 14:06:20;;;;;;;;;;;50.20;15.10;;;;;;4958704;28;19921;-91
2022/06/18 14:09:01;;;;;;;;;;;50.00;15.20;;;;;;4975253;28;19906;-92
2022/06/18 14:11:57;;;;;;;;;;;;;;;;;;;;;
2022/06/18 14:14:28;;;;;;;;;;;49.50;15.50;;;;;;4943047;29;19998;-93
2022/06/18 14:17:01;;;;;;;;;;;49.30;15.70;;;;;;4920081;29;19927;-92
2022/06/18 14:19:29;;;;;;;;;;;49.00;15.80;;;;;;4939075;29;19965;-90
2022/06/18 14:22:13;;;;;;;;;;;48.50;16.00;;;;;;4931347;29;20379;-91
2022/06/18 14:24:47;;;;;;;;;;;48.00;16.20;;;;;;4961980;28;19919;-94
2022/06/18 14:27:20;;;;;;;;;;;47.40;16.50;;;;;;4963922;29;19921;-91
2022/06/18 14:29:45;;;;;;;;;;;46.80;16.70;;;;;;4946653;29;19919;-90
2022/06/18 14:32:17;;;;;;;;;;;46.20;17.10;;;;;;4962767;29;20356;-91
2022/06/18 14:34:42;;;;;;;;;;;45.80;17.30;;;;;;4961549;29;19918;-91
2022/06/18 14:37:20;;;;;;;;;;;;;;;;;;;;;
2022/06/18 14:39:54;;;;;;;;;;;45.00;17.90;;;;;;4963544;28;19976;-91
2022/06/18 14:42:22;;;;;;;;;;;44.60;18.00;;;;;;4949891;28;19918;-88
2022/06/18 14:44:48;;;;;;;;;;;44.30;18.50;;;;;;4943387;29;19926;-89
2022/06/18 14:47:22;;;;;;;;;;;43.90;18.70;;;;;;4945651;29;19966;-89
2022/06/18 14:49:58;;;;;;;;;;;43.60;18.90;;;;;;4968696;28;20236;-88
2022/06/18 14:52:23;;;;;;;;;;;43.30;19.20;;;;;;4948986;28;19922;-88
2022/06/18 14:55:05;;;;;;;;;;;43.20;19.50;;;;;;4960064;28;19922;-87
2022/06/18 14:57:37;;;;;;;;;;;43.10;19.70;;;;;;4960626;28;19914;-88
2022/06/18 15:00:22;;;;;;;;;;;43.00;19.70;;;;;;4960438;28;19926;-87
2022/06/18 15:02:51;;;;;;;;;;;43.00;19.70;;;;;;4939437;29;19964;-89
2022/06/18 15:05:19;;;;;;;;;;;42.80;19.80;;;;;;4958134;28;19970;-90
2022/06/18 15:07:44;;;;;;;;;;;42.70;20.10;;;;;;4968122;28;19921;-89
2022/06/18 15:10:27;;;;;;;;;;;42.60;20.40;;;;;;4942622;29;19922;-89
2022/06/18 15:12:53;;;;;;;;;;;42.50;20.60;;;;;;4968933;28;19914;-87
2022/06/18 15:15:25;;;;;;;;;;;42.30;20.50;;;;;;4964157;28;20375;-90
2022/06/18 15:18:14;;;;;;;;;;;42.20;20.70;;;;;;4961574;29;19918;-89
2022/06/18 15:20:53;;;;;;;;;;;42.10;20.70;;;;;;4938683;29;20009;-86
2022/06/18 15:23:33;;;;;;;;;;;42.00;20.70;;;;;;4957967;29;19927;-87
2022/06/18 15:26:05;;;;;;;;;;;41.80;21.00;;;;;;4958890;29;19938;-88
2022/06/18 15:28:30;;;;;;;;;;;41.60;21.30;;;;;;4959026;29;19914;-87
2022/06/18 15:31:02;;;;;;;;;;;41.60;21.50;;;;;;4956993;28;19930;-86
2022/06/18 15:33:27;;;;;;;;;;;41.50;21.50;;;;;;4949461;28;19929;-88
2022/06/18 15:35:54;;;;;;;;;;;41.30;21.50;;;;;;4963689;28;19922;-88
2022/06/18 15:38:24;;;;;;;;;;;41.30;21.90;;;;;;4959134;28;20294;-88
2022/06/18 15:40:55;;;;;;;;;;;41.10;22.00;;;;;;4958040;28;19922;-87
2022/06/18 15:43:24;;;;;;;;;;;40.90;22.20;;;;;;4959996;28;19918;-90
2022/06/18 15:45:51;;;;;;;;;;;40.80;22.40;;;;;;4975500;28;19969;-88
2022/06/18 15:48:18;;;;;;;;;;;40.80;22.60;;;;;;4976425;28;20045;-88
2022/06/18 15:50:44;;;;;;;;;;;40.70;22.80;;;;;;4972742;28;19922;-89
2022/06/18 15:53:23;;;;;;;;;;;40.50;22.80;;;;;;4953163;28;19920;-89
2022/06/18 15:55:51;;;;;;;;;;;40.40;22.80;;;;;;4970873;28;19923;-89
2022/06/18 15:58:17;;;;;;;;;;;40.20;23.10;;;;;;4967887;28;19914;-88
2022/06/18 16:00:42;;;;;;;;;;;40.10;23.30;;;;;;4957441;28;19926;-87
2022/06/18 16:03:10;;;;;;;;;;;40.00;23.40;;;;;;4962556;28;19969;-87
2022/06/18 16:05:39;;;;;;;;;;;39.90;23.50;;;;;;4973685;28;20024;-87
2022/06/18 16:08:07;;;;;;;;;;;39.90;23.60;;;;;;4959997;28;19922;-87
2022/06/18 16:10:37;;;;;;;;;;;39.80;23.60;;;;;;4974735;28;19914;-86
2022/06/18 16:13:22;;;;;;;;;;;39.70;23.70;;;;;;4976679;28;19926;-89
2022/06/18 16:15:50;;;;;;;;;;;39.60;23.70;;;;;;4958465;28;19922;-87
2022/06/18 16:18:23;;;;;;;;;;;39.50;23.80;;;;;;4960614;28;19922;-87
2022/06/18 16:21:04;;;;;;;;;;;39.30;24.00;;;;;;4938046;29;19965;-86
2022/06/18 16:23:33;;;;;;;;;;;39.20;24.10;;;;;;4938138;29;20647;-87
2022/06/18 16:25:59;;;;;;;;;;;39.20;24.40;;;;;;4954856;29;19915;-86
2022/06/18 16:28:33;;;;;;;;;;;39.10;24.60;;;;;;4936612;29;19923;-85
2022/06/18 16:31:01;;;;;;;;;;;39.00;24.70;;;;;;4937684;29;19922;-86
2022/06/18 16:33:29;;;;;;;;;;;38.90;24.90;;;;;;4933421;29;19965;-85
2022/06/18 16:36:13;;;;;;;;;;;38.80;24.90;;;;;;4935747;29;19926;-86
2022/06/18 16:38:45;;;;;;;;;;;38.70;25.00;;;;;;4936226;29;20107;-86
2022/06/18 16:41:13;;;;;;;;;;;38.60;25.30;;;;;;4954301;29;19978;-86
2022/06/18 16:43:42;;;;;;;;;;;38.50;25.50;;;;;;4919309;29;19923;-87
2022/06/18 16:46:20;;;;;;;;;;;38.40;25.70;;;;;;4935373;29;19918;-87
2022/06/18 16:48:46;;;;;;;;;;;38.40;25.80;;;;;;4919700;29;20303;-87
2022/06/18 16:51:12;;;;;;;;;;;38.30;26.00;;;;;;4937686;29;19921;-88
2022/06/18 16:53:45;;;;;;;;;;;38.30;26.20;;;;;;4920135;29;19923;-88
2022/06/18 16:56:12;;;;;;;;;;;38.30;26.70;;;;;;4935909;29;20316;-87
2022/06/18 16:58:38;;;;;;;;;;;38.20;27.00;;;;;;4950825;29;19934;-88
2022/06/18 17:01:03;;;;;;;;;;;38.00;27.30;;;;;;4971101;28;19943;-86
2022/06/18 17:03:29;;;;;;;;;;;37.80;27.60;;;;;;4957421;28;19945;-86
2022/06/18 17:05:55;;;;;;;;;;;37.70;28.20;;;;;;4974281;28;19965;-87
2022/06/18 17:08:21;;;;;;;;;;;37.50;28.60;;;;;;4946890;29;20013;-86
2022/06/18 17:10:48;;;;;;;;;;;37.30;29.00;;;;;;4954784;29;19921;-87
2022/06/18 17:13:15;;;;;;;;;;;37.20;29.30;;;;;;4936293;29;20005;-88
2022/06/18 17:15:41;;;;;;;;;;;37.00;29.70;;;;;;4938124;28;19921;-87
2022/06/18 17:18:09;;;;;;;;;;;36.80;29.80;;;;;;4961678;28;20311;-87
2022/06/18 17:20:35;;;;;;;;;;;36.70;29.90;;;;;;4944355;29;20334;-86
2022/06/18 17:23:01;;;;;;;;;;;36.70;30.00;;;;;;4954176;29;19919;-88
2022/06/18 17:31:14;;;;;;;;;;;36.30;30.50;;;;;;4955232;28;20283;-87
2022/06/18 17:33:43;;;;;;;;;;;36.30;30.60;;;;;;4949527;29;19926;-88
2022/06/18 17:36:26;;;;;;;;;;;36.20;30.80;;;;;;4953885;28;19918;-87
2022/06/18 17:38:53;;;;;;;;;;;36.10;30.90;;;;;;4934754;28;19993;-87
2022/06/18 17:41:21;;;;;;;;;;;35.90;31.10;;;;;;4955215;29;19933;-86
2022/06/18 17:43:47;;;;;;;;;;;35.80;31.20;;;;;;4944456;29;19923;-86
2022/06/18 17:46:16;;;;;;;;;;;35.80;31.50;;;;;;4954404;28;20338;-88
2022/06/18 17:48:43;;;;;;;;;;;35.70;31.70;;;;;;4937241;29;19918;-88
2022/06/18 17:51:09;;;;;;;;;;;35.50;32.00;;;;;;4934880;29;19962;-88
2022/06/18 17:53:38;;;;;;;;;;;35.40;32.00;;;;;;4951099;28;19922;-87
2022/06/18 17:56:05;;;;;;;;;;;35.30;32.20;;;;;;4936191;29;20010;-88
2022/06/18 17:58:31;;;;;;;;;;;35.20;32.40;;;;;;4938960;28;19992;-86
2022/06/18 18:00:56;;;;;;;;;;;35.00;32.60;;;;;;4951245;29;19930;-86
2022/06/18 18:03:25;;;;;;;;;;;34.90;32.80;;;;;;4947534;29;19950;-86